sensor_id;sensor_type;location;lat;lon;timestamp;pressure;altitude;pressure_sealevel;temperature;humidity
29549;BME280;16487;53.094;8.800;2023-03-14T00:00:52;97831.75;;;10.99;100.00
29549;BME280;16487;53.094;8.800;2023-03-14T00:03:19;97821.50;;;11.12;100.00
29549;BME280;16487;53.094;8.800;2023-03-14T00:05:47;97807.25;;;11.21;100.00
29549;BME280;16487;53.094;8.800;2023-03-14T00:08:14;97780.72;;;11.15;100.00
29549;BME280;16487;53.094;8.800;2023-03-14T00:10:41;97763.22;;;11.14;100.00
29549;BME280;16487;53.094;8.800;2023-03-14T00:13:09;97756.13;;;11.13;100.00
29549;BME280;16487;53.094;8.800;2023-03-14T00:15:38;97745.09;;;11.02;100.00
29549;BME280;16487;53.094;8.800;2023-03-14T00:18:05;97742.19;;;11.13;100.00
29549;BME280;16487;53.094;8.800;2023-03-14T00:20:33;97738.94;;;11.09;100.00
29549;BME280;16487;53.094;8.800;2023-03-14T00:23:00;97729.06;;;11.08;100.00
29549;BME280;16487;53.094;8.800;2023-03-14T00:25:27;97731.63;;;11.06;100.00
29549;BME280;16487;53.094;8.800;2023-03-14T00:27:54;97721.97;;;11.07;100.00
29549;BME280;16487;53.094;8.800;2023-03-14T00:30:22;97717.88;;;11.14;100.00
29549;BME280;16487;53.094;8.800;2023-03-14T00:32:50;97719.09;;;11.18;100.00
29549;BME280;16487;53.094;8.800;2023-03-14T00:35:18;97707.97;;;11.18;100.00
29549;BME280;16487;53.094;8.800;2023-03-14T00:37:45;97705.63;;;11.22;100.00
29549;BME280;16487;53.094;8.800;2023-03-14T00:40:13;97710.75;;;11.18;100.00
29549;BME280;16487;53.094;8.800;2023-03-14T00:42:40;97713.53;;;11.18;100.00
29549;BME280;16487;53.094;8.800;2023-03-14T00:45:08;97711.25;;;11.17;100.00
29549;BME280;16487;53.094;8.800;2023-03-14T00:47:36;97715.28;;;11.21;100.00
29549;BME280;16487;53.094;8.800;2023-03-14T00:50:06;97715.81;;;11.20;100.00
29549;BME280;16487;53.094;8.800;2023-03-14T00:52:33;97717.06;;;11.19;100.00
29549;BME280;16487;53.094;8.800;2023-03-14T00:55:00;97688.78;;;11.09;100.00
29549;BME280;16487;53.094;8.800;2023-03-14T00:57:28;97682.25;;;11.01;100.00
29549;BME280;16487;53.094;8.800;2023-03-14T00:59:55;97700.03;;;10.98;100.00
29549;BME280;16487;53.094;8.800;2023-03-14T01:02:23;97706.19;;;10.86;100.00
29549;BME280;16487;53.094;8.800;2023-03-14T01:04:50;97710.78;;;10.83;100.00
29549;BME280;16487;53.094;8.800;2023-03-14T01:07:19;97695.78;;;10.92;100.00
29549;BME280;16487;53.094;8.800;2023-03-14T01:09:46;97703.34;;;10.97;100.00
29549;BME280;16487;53.094;8.800;2023-03-14T01:12:14;97691.41;;;10.96;100.00
29549;BME280;16487;53.094;8.800;2023-03-14T01:14:42;97686.91;;;10.93;100.00
29549;BME280;16487;53.094;8.800;2023-03-14T01:17:09;97681.31;;;10.93;100.00
29549;BME280;16487;53.094;8.800;2023-03-14T01:19:36;97680.56;;;10.93;100.00
29549;BME280;16487;53.094;8.800;2023-03-14T01:22:04;97682.84;;;10.94;100.00
29549;BME280;16487;53.094;8.800;2023-03-14T01:24:32;97676.81;;;10.90;100.00
29549;BME280;16487;53.094;8.800;2023-03-14T01:27:00;97676.03;;;10.90;100.00
29549;BME280;16487;53.094;8.800;2023-03-14T01:29:28;97692.72;;;10.95;100.00
29549;BME280;16487;53.094;8.800;2023-03-14T01:31:56;97711.94;;;10.99;100.00
29549;BME280;16487;53.094;8.800;2023-03-14T01:34:23;97705.31;;;11.02;100.00
29549;BME280;16487;53.094;8.800;2023-03-14T01:36:51;97710.13;;;11.01;100.00
29549;BME280;16487;53.094;8.800;2023-03-14T01:39:19;97716.75;;;10.98;100.00
29549;BME280;16487;53.094;8.800;2023-03-14T01:41:47;97715.94;;;11.03;100.00
29549;BME280;16487;53.094;8.800;2023-03-14T01:44:16;97705.25;;;11.07;100.00
29549;BME280;16487;53.094;8.800;2023-03-14T01:46:44;97699.44;;;11.05;100.00
29549;BME280;16487;53.094;8.800;2023-03-14T01:49:17;97707.53;;;11.09;100.00
29549;BME280;16487;53.094;8.800;2023-03-14T01:52:04;97699.69;;;11.07;100.00
29549;BME280;16487;53.094;8.800;2023-03-14T01:54:35;97685.28;;;11.03;100.00
29549;BME280;16487;53.094;8.800;2023-03-14T01:57:08;97684.25;;;11.06;100.00
29549;BME280;16487;53.094;8.800;2023-03-14T01:59:37;97680.28;;;10.96;100.00
29549;BME280;16487;53.094;8.800;2023-03-14T02:02:09;97681.31;;;10.93;100.00
29549;BME280;16487;53.094;8.800;2023-03-14T02:04:39;97698.84;;;10.88;100.00
29549;BME280;16487;53.094;8.800;2023-03-14T02:07:12;97711.72;;;10.91;100.00
29549;BME280;16487;53.094;8.800;2023-03-14T02:09:48;97721.38;;;10.90;100.00
29549;BME280;16487;53.094;8.800;2023-03-14T02:12:23;97736.28;;;10.93;100.00
29549;BME280;16487;53.094;8.800;2023-03-14T02:15:11;97730.66;;;10.98;100.00
29549;BME280;16487;53.094;8.800;2023-03-14T02:18:05;97722.56;;;11.00;100.00
29549;BME280;16487;53.094;8.800;2023-03-14T02:21:11;97732.41;;;11.01;100.00
29549;BME280;16487;53.094;8.800;2023-03-14T02:23:50;97737.41;;;11.08;100.00
29549;BME280;16487;53.094;8.800;2023-03-14T02:26:26;97737.13;;;11.12;100.00
29549;BME280;16487;53.094;8.800;2023-03-14T02:28:56;97734.59;;;11.14;100.00
29549;BME280;16487;53.094;8.800;2023-03-14T02:31:24;97735.06;;;11.18;100.00
29549;BME280;16487;53.094;8.800;2023-03-14T02:33:52;97729.44;;;11.23;100.00
29549;BME280;16487;53.094;8.800;2023-03-14T02:36:20;97719.81;;;11.24;100.00
29549;BME280;16487;53.094;8.800;2023-03-14T02:38:52;97713.41;;;11.29;100.00
29549;BME280;16487;53.094;8.800;2023-03-14T02:41:25;97707.84;;;11.29;100.00
29549;BME280;16487;53.094;8.800;2023-03-14T02:44:01;97691.34;;;11.31;100.00
29549;BME280;16487;53.094;8.800;2023-03-14T02:46:28;97689.03;;;11.35;100.00
29549;BME280;16487;53.094;8.800;2023-03-14T02:48:59;97673.81;;;11.36;100.00
29549;BME280;16487;53.094;8.800;2023-03-14T02:51:28;97658.75;;;11.45;100.00
29549;BME280;16487;53.094;8.800;2023-03-14T02:53:55;97651.16;;;11.45;100.00
29549;BME280;16487;53.094;8.800;2023-03-14T02:56:25;97637.50;;;11.42;100.00
29549;BME280;16487;53.094;8.800;2023-03-14T02:58:52;97628.63;;;11.43;100.00
29549;BME280;16487;53.094;8.800;2023-03-14T03:01:29;97612.78;;;11.51;100.00
29549;BME280;16487;53.094;8.800;2023-03-14T03:03:56;97604.00;;;11.47;100.00
29549;BME280;16487;53.094;8.800;2023-03-14T03:06:28;97594.56;;;11.50;100.00
29549;BME280;16487;53.094;8.800;2023-03-14T03:08:59;97584.53;;;11.61;100.00
29549;BME280;16487;53.094;8.800;2023-03-14T03:11:26;97577.91;;;11.64;100.00
29549;BME280;16487;53.094;8.800;2023-03-14T03:13:54;97548.78;;;11.65;100.00
29549;BME280;16487;53.094;8.800;2023-03-14T03:16:21;97542.38;;;11.70;100.00
29549;BME280;16487;53.094;8.800;2023-03-14T03:18:50;97529.63;;;11.74;100.00
29549;BME280;16487;53.094;8.800;2023-03-14T03:21:17;97515.16;;;11.76;100.00
29549;BME280;16487;53.094;8.800;2023-03-14T03:23:45;97498.94;;;11.74;100.00
29549;BME280;16487;53.094;8.800;2023-03-14T03:26:12;97494.66;;;11.73;100.00
29549;BME280;16487;53.094;8.800;2023-03-14T03:28:39;97487.88;;;11.69;100.00
29549;BME280;16487;53.094;8.800;2023-03-14T03:31:08;97482.06;;;11.67;100.00
29549;BME280;16487;53.094;8.800;2023-03-14T03:33:36;97479.28;;;11.67;100.00
29549;BME280;16487;53.094;8.800;2023-03-14T03:36:07;97479.56;;;11.63;100.00
29549;BME280;16487;53.094;8.800;2023-03-14T03:38:37;97489.22;;;11.43;100.00
29549;BME280;16487;53.094;8.800;2023-03-14T03:41:06;97493.44;;;11.31;100.00
29549;BME280;16487;53.094;8.800;2023-03-14T03:43:34;97519.41;;;11.21;100.00
29549;BME280;16487;53.094;8.800;2023-03-14T03:46:04;97523.44;;;11.25;100.00
29549;BME280;16487;53.094;8.800;2023-03-14T03:48:32;97523.84;;;11.11;100.00
29549;BME280;16487;53.094;8.800;2023-03-14T03:51:02;97545.72;;;11.01;100.00
29549;BME280;16487;53.094;8.800;2023-03-14T03:53:32;97571.09;;;10.98;100.00
29549;BME280;16487;53.094;8.800;2023-03-14T03:56:10;97581.03;;;10.93;100.00
29549;BME280;16487;53.094;8.800;2023-03-14T03:58:38;97593.22;;;10.90;100.00
29549;BME280;16487;53.094;8.800;2023-03-14T04:01:06;97607.19;;;10.85;100.00
29549;BME280;16487;53.094;8.800;2023-03-14T04:03:33;97622.13;;;10.87;100.00
29549;BME280;16487;53.094;8.800;2023-03-14T04:06:03;97623.97;;;10.79;100.00
29549;BME280;16487;53.094;8.800;2023-03-14T04:08:34;97657.38;;;10.79;100.00
29549;BME280;16487;53.094;8.800;2023-03-14T04:11:03;97661.69;;;10.80;100.00
29549;BME280;16487;53.094;8.800;2023-03-14T04:13:45;97651.78;;;10.85;100.00
29549;BME280;16487;53.094;8.800;2023-03-14T04:16:16;97649.47;;;10.89;100.00
29549;BME280;16487;53.094;8.800;2023-03-14T04:18:44;97648.69;;;10.88;100.00
29549;BME280;16487;53.094;8.800;2023-03-14T04:21:11;97634.19;;;10.95;100.00
29549;BME280;16487;53.094;8.800;2023-03-14T04:23:46;97621.31;;;10.92;100.00
29549;BME280;16487;53.094;8.800;2023-03-14T04:26:14;97596.50;;;10.94;100.00
29549;BME280;16487;53.094;8.800;2023-03-14T04:28:42;97592.06;;;11.04;100.00
29549;BME280;16487;53.094;8.800;2023-03-14T04:31:11;97569.78;;;11.04;100.00
29549;BME280;16487;53.094;8.800;2023-03-14T04:33:41;97567.22;;;11.06;100.00
29549;BME280;16487;53.094;8.800;2023-03-14T04:36:12;97557.34;;;11.05;100.00
29549;BME280;16487;53.094;8.800;2023-03-14T04:38:39;97540.63;;;11.05;100.00
29549;BME280;16487;53.094;8.800;2023-03-14T04:41:10;97541.44;;;11.00;100.00
29549;BME280;16487;53.094;8.800;2023-03-14T04:43:37;97533.31;;;11.02;100.00
29549;BME280;16487;53.094;8.800;2023-03-14T04:46:07;97542.25;;;10.95;100.00
29549;BME280;16487;53.094;8.800;2023-03-14T04:48:34;97556.19;;;10.95;100.00
29549;BME280;16487;53.094;8.800;2023-03-14T04:51:03;97545.06;;;10.95;100.00
29549;BME280;16487;53.094;8.800;2023-03-14T04:53:33;97549.13;;;10.94;100.00
29549;BME280;16487;53.094;8.800;2023-03-14T04:56:04;97548.88;;;10.92;100.00
29549;BME280;16487;53.094;8.800;2023-03-14T04:58:44;97552.13;;;10.96;100.00
29549;BME280;16487;53.094;8.800;2023-03-14T05:01:15;97544.53;;;10.97;100.00
29549;BME280;16487;53.094;8.800;2023-03-14T05:03:42;97547.25;;;11.02;100.00
29549;BME280;16487;53.094;8.800;2023-03-14T05:06:15;97540.78;;;10.94;100.00
29549;BME280;16487;53.094;8.800;2023-03-14T05:09:01;97517.47;;;10.92;100.00
29549;BME280;16487;53.094;8.800;2023-03-14T05:11:41;97517.47;;;10.92;100.00
29549;BME280;16487;53.094;8.800;2023-03-14T05:14:24;97490.16;;;10.90;100.00
29549;BME280;16487;53.094;8.800;2023-03-14T05:17:10;97474.84;;;10.78;100.00
29549;BME280;16487;53.094;8.800;2023-03-14T05:19:56;97497.13;;;10.78;100.00
29549;BME280;16487;53.094;8.800;2023-03-14T05:22:24;97469.09;;;10.71;100.00
29549;BME280;16487;53.094;8.800;2023-03-14T05:25:01;97468.06;;;10.74;100.00
29549;BME280;16487;53.094;8.800;2023-03-14T05:27:56;97446.06;;;10.70;100.00
29549;BME280;16487;53.094;8.800;2023-03-14T05:30:37;97442.59;;;10.64;100.00
29549;BME280;16487;53.094;8.800;2023-03-14T05:33:22;97429.94;;;10.63;100.00
29549;BME280;16487;53.094;8.800;2023-03-14T05:36:02;97408.72;;;10.60;100.00
29549;BME280;16487;53.094;8.800;2023-03-14T05:38:48;97410.59;;;10.52;100.00
29549;BME280;16487;53.094;8.800;2023-03-14T05:41:50;97391.94;;;10.47;100.00
29549;BME280;16487;53.094;8.800;2023-03-14T05:44:21;97398.56;;;10.44;100.00
29549;BME280;16487;53.094;8.800;2023-03-14T05:47:19;97385.44;;;10.39;100.00
29549;BME280;16487;53.094;8.800;2023-03-14T05:50:07;97391.09;;;10.33;100.00
29549;BME280;16487;53.094;8.800;2023-03-14T05:53:03;97398.31;;;10.42;100.00
29549;BME280;16487;53.094;8.800;2023-03-14T05:55:40;97399.28;;;10.45;100.00
29549;BME280;16487;53.094;8.800;2023-03-14T05:58:18;97399.22;;;10.50;100.00
29549;BME280;16487;53.094;8.800;2023-03-14T06:00:46;97397.34;;;10.58;100.00
29549;BME280;16487;53.094;8.800;2023-03-14T06:03:37;97392.25;;;10.62;100.00
29549;BME280;16487;53.094;8.800;2023-03-14T06:06:06;97382.41;;;10.61;100.00
29549;BME280;16487;53.094;8.800;2023-03-14T06:08:33;97376.97;;;10.69;100.00
29549;BME280;16487;53.094;8.800;2023-03-14T06:11:02;97377.91;;;10.77;100.00
29549;BME280;16487;53.094;8.800;2023-03-14T06:13:31;97367.06;;;10.73;100.00
29549;BME280;16487;53.094;8.800;2023-03-14T06:15:58;97366.25;;;10.78;100.00
29549;BME280;16487;53.094;8.800;2023-03-14T06:18:25;97356.88;;;10.76;100.00
29549;BME280;16487;53.094;8.800;2023-03-14T06:20:54;97355.31;;;10.80;100.00
29549;BME280;16487;53.094;8.800;2023-03-14T06:23:25;97345.91;;;10.83;100.00
29549;BME280;16487;53.094;8.800;2023-03-14T06:25:53;97337.56;;;10.83;100.00
29549;BME280;16487;53.094;8.800;2023-03-14T06:28:23;97348.00;;;10.77;100.00
29549;BME280;16487;53.094;8.800;2023-03-14T06:30:53;97350.06;;;10.77;100.00
29549;BME280;16487;53.094;8.800;2023-03-14T06:33:20;97345.22;;;10.77;100.00
29549;BME280;16487;53.094;8.800;2023-03-14T06:35:47;97353.38;;;10.75;100.00
29549;BME280;16487;53.094;8.800;2023-03-14T06:38:16;97351.72;;;10.85;100.00
29549;BME280;16487;53.094;8.800;2023-03-14T06:40:44;97352.00;;;10.82;100.00
29549;BME280;16487;53.094;8.800;2023-03-14T06:43:15;97343.56;;;10.69;100.00
29549;BME280;16487;53.094;8.800;2023-03-14T06:45:44;97341.31;;;10.67;100.00
29549;BME280;16487;53.094;8.800;2023-03-14T06:48:12;97344.31;;;10.69;100.00
29549;BME280;16487;53.094;8.800;2023-03-14T06:50:45;97353.22;;;10.68;100.00
29549;BME280;16487;53.094;8.800;2023-03-14T06:53:15;97348.41;;;10.68;100.00
29549;BME280;16487;53.094;8.800;2023-03-14T06:55:44;97359.06;;;10.64;100.00
29549;BME280;16487;53.094;8.800;2023-03-14T06:58:11;97359.06;;;10.64;100.00
29549;BME280;16487;53.094;8.800;2023-03-14T07:00:42;97374.25;;;10.63;100.00
29549;BME280;16487;53.094;8.800;2023-03-14T07:03:13;97380.06;;;10.65;100.00
29549;BME280;16487;53.094;8.800;2023-03-14T07:05:44;97382.78;;;10.71;100.00
29549;BME280;16487;53.094;8.800;2023-03-14T07:08:12;97388.88;;;10.69;100.00
29549;BME280;16487;53.094;8.800;2023-03-14T07:10:41;97388.66;;;10.67;100.00
29549;BME280;16487;53.094;8.800;2023-03-14T07:13:09;97394.91;;;10.73;100.00
29549;BME280;16487;53.094;8.800;2023-03-14T07:15:47;97399.44;;;10.76;100.00
29549;BME280;16487;53.094;8.800;2023-03-14T07:18:15;97397.09;;;10.80;100.00
29549;BME280;16487;53.094;8.800;2023-03-14T07:20:45;97391.38;;;10.91;100.00
29549;BME280;16487;53.094;8.800;2023-03-14T07:23:13;97395.91;;;10.94;100.00
29549;BME280;16487;53.094;8.800;2023-03-14T07:25:49;97396.72;;;10.89;100.00
29549;BME280;16487;53.094;8.800;2023-03-14T07:28:18;97399.72;;;10.91;100.00
29549;BME280;16487;53.094;8.800;2023-03-14T07:30:47;97402.28;;;10.89;100.00
29549;BME280;16487;53.094;8.800;2023-03-14T07:33:23;97397.34;;;11.01;100.00
29549;BME280;16487;53.094;8.800;2023-03-14T07:35:50;97392.19;;;11.05;100.00
29549;BME280;16487;53.094;8.800;2023-03-14T07:38:18;97392.03;;;11.16;100.00
29549;BME280;16487;53.094;8.800;2023-03-14T07:41:09;97393.41;;;11.09;100.00
29549;BME280;16487;53.094;8.800;2023-03-14T07:43:42;97383.38;;;11.19;100.00
29549;BME280;16487;53.094;8.800;2023-03-14T07:46:09;97376.63;;;11.46;100.00
29549;BME280;16487;53.094;8.800;2023-03-14T07:48:37;97349.22;;;11.64;100.00
29549;BME280;16487;53.094;8.800;2023-03-14T07:51:04;97355.28;;;11.68;100.00
29549;BME280;16487;53.094;8.800;2023-03-14T07:53:32;97335.13;;;11.75;100.00
29549;BME280;16487;53.094;8.800;2023-03-14T07:55:59;97337.25;;;11.69;100.00
29549;BME280;16487;53.094;8.800;2023-03-14T07:58:28;97328.50;;;11.59;100.00
29549;BME280;16487;53.094;8.800;2023-03-14T08:00:55;97322.50;;;11.55;100.00
29549;BME280;16487;53.094;8.800;2023-03-14T08:03:22;97340.97;;;11.58;100.00
29549;BME280;16487;53.094;8.800;2023-03-14T08:05:50;97324.47;;;11.60;100.00
29549;BME280;16487;53.094;8.800;2023-03-14T08:08:17;97332.69;;;11.52;100.00
29549;BME280;16487;53.094;8.800;2023-03-14T08:10:45;97325.81;;;11.53;100.00
29549;BME280;16487;53.094;8.800;2023-03-14T08:13:13;97341.38;;;11.49;100.00
29549;BME280;16487;53.094;8.800;2023-03-14T08:15:42;97325.13;;;11.34;100.00
29549;BME280;16487;53.094;8.800;2023-03-14T08:18:09;97353.56;;;11.14;100.00
29549;BME280;16487;53.094;8.800;2023-03-14T08:20:36;97341.19;;;11.28;100.00
29549;BME280;16487;53.094;8.800;2023-03-14T08:23:04;97336.25;;;11.34;100.00
29549;BME280;16487;53.094;8.800;2023-03-14T08:25:31;97348.50;;;11.31;100.00
29549;BME280;16487;53.094;8.800;2023-03-14T08:27:58;97337.25;;;11.37;100.00
29549;BME280;16487;53.094;8.800;2023-03-14T08:30:26;97326.88;;;11.50;100.00
29549;BME280;16487;53.094;8.800;2023-03-14T08:32:56;97307.38;;;11.50;100.00
29549;BME280;16487;53.094;8.800;2023-03-14T08:35:23;97329.69;;;11.50;100.00
29549;BME280;16487;53.094;8.800;2023-03-14T08:37:51;97316.91;;;11.55;100.00
29549;BME280;16487;53.094;8.800;2023-03-14T08:40:18;97322.06;;;11.51;100.00
29549;BME280;16487;53.094;8.800;2023-03-14T08:42:46;97340.09;;;11.18;100.00
29549;BME280;16487;53.094;8.800;2023-03-14T08:45:14;97361.94;;;10.77;100.00
29549;BME280;16487;53.094;8.800;2023-03-14T08:47:42;97405.34;;;10.67;100.00
29549;BME280;16487;53.094;8.800;2023-03-14T08:50:11;97430.19;;;10.65;100.00
29549;BME280;16487;53.094;8.800;2023-03-14T08:52:42;97438.91;;;10.56;100.00
29549;BME280;16487;53.094;8.800;2023-03-14T08:55:10;97469.34;;;10.49;100.00
29549;BME280;16487;53.094;8.800;2023-03-14T08:57:38;97498.97;;;10.46;100.00
29549;BME280;16487;53.094;8.800;2023-03-14T09:00:06;97525.06;;;10.43;100.00
29549;BME280;16487;53.094;8.800;2023-03-14T09:02:33;97557.31;;;10.33;100.00
29549;BME280;16487;53.094;8.800;2023-03-14T09:05:01;97577.03;;;10.35;100.00
29549;BME280;16487;53.094;8.800;2023-03-14T09:07:30;97582.88;;;10.31;100.00
29549;BME280;16487;53.094;8.800;2023-03-14T09:09:57;97624.66;;;10.26;100.00
29549;BME280;16487;53.094;8.800;2023-03-14T09:12:25;97726.34;;;9.64;100.00
29549;BME280;16487;53.094;8.800;2023-03-14T09:14:53;97811.56;;;8.20;100.00
29549;BME280;16487;53.094;8.800;2023-03-14T09:17:21;97857.53;;;7.53;100.00
29549;BME280;16487;53.094;8.800;2023-03-14T09:19:49;97893.75;;;6.67;100.00
29549;BME280;16487;53.094;8.800;2023-03-14T09:22:17;97968.25;;;6.51;100.00
29549;BME280;16487;53.094;8.800;2023-03-14T09:24:46;98018.47;;;6.29;100.00
29549;BME280;16487;53.094;8.800;2023-03-14T09:27:13;98033.47;;;6.23;100.00
29549;BME280;16487;53.094;8.800;2023-03-14T09:29:41;98082.19;;;6.20;100.00
29549;BME280;16487;53.094;8.800;2023-03-14T09:32:08;98111.53;;;6.03;100.00
29549;BME280;16487;53.094;8.800;2023-03-14T09:34:35;98144.13;;;5.99;100.00
29549;BME280;16487;53.094;8.800;2023-03-14T09:37:03;98176.13;;;5.76;100.00
29549;BME280;16487;53.094;8.800;2023-03-14T09:39:30;98184.28;;;5.71;100.00
29549;BME280;16487;53.094;8.800;2023-03-14T09:42:02;98203.44;;;5.51;100.00
29549;BME280;16487;53.094;8.800;2023-03-14T09:44:32;98236.50;;;5.69;100.00
29549;BME280;16487;53.094;8.800;2023-03-14T09:47:02;98273.78;;;5.64;100.00
29549;BME280;16487;53.094;8.800;2023-03-14T09:49:33;98300.88;;;5.51;100.00
29549;BME280;16487;53.094;8.800;2023-03-14T09:52:06;98328.38;;;5.46;100.00
29549;BME280;16487;53.094;8.800;2023-03-14T09:54:41;98363.09;;;4.78;100.00
29549;BME280;16487;53.094;8.800;2023-03-14T09:57:14;98413.19;;;4.67;100.00
29549;BME280;16487;53.094;8.800;2023-03-14T09:59:43;98436.34;;;4.52;100.00
29549;BME280;16487;53.094;8.800;2023-03-14T10:02:15;98455.06;;;4.57;100.00
29549;BME280;16487;53.094;8.800;2023-03-14T10:04:44;98468.97;;;4.44;100.00
29549;BME280;16487;53.094;8.800;2023-03-14T10:07:14;98524.88;;;4.36;100.00
29549;BME280;16487;53.094;8.800;2023-03-14T10:09:44;98540.25;;;4.15;100.00
29549;BME280;16487;53.094;8.800;2023-03-14T10:12:12;98565.09;;;4.24;100.00
29549;BME280;16487;53.094;8.800;2023-03-14T10:14:45;98585.50;;;4.05;100.00
29549;BME280;16487;53.094;8.800;2023-03-14T10:17:14;98590.16;;;4.17;100.00
29549;BME280;16487;53.094;8.800;2023-03-14T10:19:51;98604.53;;;4.12;100.00
29549;BME280;16487;53.094;8.800;2023-03-14T10:22:20;98610.81;;;4.13;100.00
29549;BME280;16487;53.094;8.800;2023-03-14T10:24:52;98631.56;;;4.26;100.00
29549;BME280;16487;53.094;8.800;2023-03-14T10:27:23;98636.53;;;4.40;100.00
29549;BME280;16487;53.094;8.800;2023-03-14T10:29:55;98645.13;;;4.42;100.00
29549;BME280;16487;53.094;8.800;2023-03-14T10:32:32;98639.28;;;4.40;100.00
29549;BME280;16487;53.094;8.800;2023-03-14T10:35:07;98646.78;;;4.40;100.00
29549;BME280;16487;53.094;8.800;2023-03-14T10:37:35;98654.34;;;4.48;100.00
29549;BME280;16487;53.094;8.800;2023-03-14T10:40:04;98671.19;;;4.50;100.00
29549;BME280;16487;53.094;8.800;2023-03-14T10:42:38;98675.84;;;4.53;100.00
29549;BME280;16487;53.094;8.800;2023-03-14T10:45:31;98685.84;;;4.69;100.00
29549;BME280;16487;53.094;8.800;2023-03-14T10:48:13;98689.97;;;4.64;100.00
29549;BME280;16487;53.094;8.800;2023-03-14T10:50:48;98688.38;;;4.54;100.00
29549;BME280;16487;53.094;8.800;2023-03-14T10:53:17;98694.88;;;4.60;100.00
29549;BME280;16487;53.094;8.800;2023-03-14T10:55:45;98705.25;;;4.56;100.00
29549;BME280;16487;53.094;8.800;2023-03-14T10:58:22;98698.25;;;4.64;100.00
29549;BME280;16487;53.094;8.800;2023-03-14T11:00:53;98708.69;;;4.69;100.00
29549;BME280;16487;53.094;8.800;2023-03-14T11:03:26;98702.53;;;4.65;100.00
29549;BME280;16487;53.094;8.800;2023-03-14T11:06:04;98689.41;;;4.79;100.00
29549;BME280;16487;53.094;8.800;2023-03-14T11:08:38;98685.41;;;4.71;100.00
29549;BME280;16487;53.094;8.800;2023-03-14T11:11:14;98680.63;;;4.71;100.00
29549;BME280;16487;53.094;8.800;2023-03-14T11:13:51;98685.91;;;4.87;100.00
29549;BME280;16487;53.094;8.800;2023-03-14T11:16:26;98703.56;;;4.99;100.00
29549;BME280;16487;53.094;8.800;2023-03-14T11:19:06;98715.50;;;4.87;100.00
29549;BME280;16487;53.094;8.800;2023-03-14T11:21:44;98705.13;;;5.00;100.00
29549;BME280;16487;53.094;8.800;2023-03-14T11:24:43;98685.84;;;5.09;100.00
29549;BME280;16487;53.094;8.800;2023-03-14T11:27:17;98687.41;;;5.28;100.00
29549;BME280;16487;53.094;8.800;2023-03-14T11:29:53;98684.66;;;5.37;100.00
29549;BME280;16487;53.094;8.800;2023-03-14T11:32:29;98680.38;;;5.36;100.00
29549;BME280;16487;53.094;8.800;2023-03-14T11:35:02;98660.88;;;5.66;100.00
29549;BME280;16487;53.094;8.800;2023-03-14T11:37:33;98647.84;;;5.76;100.00
29549;BME280;16487;53.094;8.800;2023-03-14T11:40:10;98661.38;;;5.47;100.00
29549;BME280;16487;53.094;8.800;2023-03-14T11:42:42;98654.31;;;5.64;100.00
29549;BME280;16487;53.094;8.800;2023-03-14T11:45:17;98644.81;;;5.83;100.00
29549;BME280;16487;53.094;8.800;2023-03-14T11:47:50;98611.22;;;6.26;100.00
29549;BME280;16487;53.094;8.800;2023-03-14T11:50:24;98592.53;;;6.54;100.00
29549;BME280;16487;53.094;8.800;2023-03-14T11:52:55;98569.38;;;6.42;100.00
29549;BME280;16487;53.094;8.800;2023-03-14T11:55:27;98553.03;;;6.53;100.00
29549;BME280;16487;53.094;8.800;2023-03-14T11:58:01;98542.41;;;6.28;100.00
29549;BME280;16487;53.094;8.800;2023-03-14T12:00:31;98543.31;;;6.25;100.00
29549;BME280;16487;53.094;8.800;2023-03-14T12:03:02;98529.66;;;5.71;100.00
29549;BME280;16487;53.094;8.800;2023-03-14T12:05:50;98525.50;;;5.85;100.00
29549;BME280;16487;53.094;8.800;2023-03-14T12:08:38;98539.31;;;6.26;100.00
29549;BME280;16487;53.094;8.800;2023-03-14T12:11:12;98523.50;;;6.59;100.00
29549;BME280;16487;53.094;8.800;2023-03-14T12:13:40;98502.91;;;6.28;100.00
29549;BME280;16487;53.094;8.800;2023-03-14T12:16:27;98488.25;;;6.36;100.00
29549;BME280;16487;53.094;8.800;2023-03-14T12:18:57;98488.59;;;6.29;100.00
29549;BME280;16487;53.094;8.800;2023-03-14T12:21:44;98488.41;;;6.09;100.00
29549;BME280;16487;53.094;8.800;2023-03-14T12:24:18;98495.50;;;6.01;100.00
29549;BME280;16487;53.094;8.800;2023-03-14T12:26:52;98514.59;;;5.90;100.00
29549;BME280;16487;53.094;8.800;2023-03-14T12:29:20;98535.00;;;5.83;100.00
29549;BME280;16487;53.094;8.800;2023-03-14T12:31:49;98513.03;;;5.89;100.00
29549;BME280;16487;53.094;8.800;2023-03-14T12:34:32;98507.91;;;6.38;100.00
29549;BME280;16487;53.094;8.800;2023-03-14T12:37:26;98437.31;;;6.90;100.00
29549;BME280;16487;53.094;8.800;2023-03-14T12:40:06;98347.25;;;6.65;100.00
29549;BME280;16487;53.094;8.800;2023-03-14T12:42:45;98292.03;;;6.85;100.00
29549;BME280;16487;53.094;8.800;2023-03-14T12:45:28;98285.72;;;6.70;100.00
29549;BME280;16487;53.094;8.800;2023-03-14T12:48:08;98290.13;;;6.77;100.00
29549;BME280;16487;53.094;8.800;2023-03-14T12:50:40;98339.84;;;6.71;100.00
29549;BME280;16487;53.094;8.800;2023-03-14T12:53:40;98381.81;;;6.84;100.00
29549;BME280;16487;53.094;8.800;2023-03-14T12:56:21;98416.22;;;6.92;100.00
29549;BME280;16487;53.094;8.800;2023-03-14T12:59:05;98484.41;;;7.05;100.00
29549;BME280;16487;53.094;8.800;2023-03-14T13:01:46;98589.72;;;7.10;100.00
29549;BME280;16487;53.094;8.800;2023-03-14T13:04:16;98625.56;;;7.37;100.00
29549;BME280;16487;53.094;8.800;2023-03-14T13:06:54;98672.28;;;7.68;100.00
29549;BME280;16487;53.094;8.800;2023-03-14T13:09:36;98728.81;;;8.08;100.00
29549;BME280;16487;53.094;8.800;2023-03-14T13:12:09;98797.50;;;8.13;100.00
29549;BME280;16487;53.094;8.800;2023-03-14T13:14:43;98953.56;;;7.40;100.00
29549;BME280;16487;53.094;8.800;2023-03-14T13:17:11;98908.59;;;7.45;100.00